createdAt,value
2022-12-29T00:03:09.636Z,10.4
2022-12-29T00:13:10.212Z,10.5
2022-12-29T00:23:11.034Z,10.5
2022-12-29T00:33:11.318Z,10.3
2022-12-29T00:43:11.504Z,10.2
2022-12-29T00:53:11.622Z,10.2
2022-12-29T01:03:12.395Z,10.3
2022-12-29T01:13:12.678Z,10.2
2022-12-29T01:33:13.798Z,10.4
2022-12-29T01:43:14.100Z,10.6
2022-12-29T01:53:15.034Z,10.8
2022-12-29T02:03:15.892Z,11.1
2022-12-29T02:13:16.055Z,11.1
2022-12-29T02:23:16.388Z,11
2022-12-29T02:33:16.736Z,11.1
2022-12-29T02:43:17.004Z,11.1
2022-12-29T02:53:17.562Z,11.2
2022-12-29T03:03:18.379Z,11.2
2022-12-29T03:13:18.700Z,11.5
2022-12-29T03:23:19.519Z,11.4
2022-12-29T03:33:19.960Z,11.2
2022-12-29T03:43:20.562Z,11.4
2022-12-29T03:53:21.322Z,11.4
2022-12-29T04:13:21.699Z,10.6
2022-12-29T04:23:22.345Z,10.4
2022-12-29T04:33:22.577Z,10.5
2022-12-29T04:43:22.984Z,10.7
2022-12-29T04:53:23.961Z,11.1
2022-12-29T05:03:24.350Z,11.5
2022-12-29T05:13:24.473Z,11.6
2022-12-29T05:23:24.813Z,11.7
2022-12-29T05:33:25.024Z,11.8
2022-12-29T05:43:26.061Z,11.9
2022-12-29T05:53:26.289Z,11.8
2022-12-29T06:13:27.487Z,11.2
2022-12-29T06:23:27.998Z,10.9
2022-12-29T06:33:28.663Z,11.2
2022-12-29T06:43:28.766Z,10.9
2022-12-29T06:53:29.197Z,11
2022-12-29T07:03:29.607Z,11.3
2022-12-29T07:13:30.141Z,11.3
2022-12-29T07:23:31.101Z,10.9
2022-12-29T07:33:31.531Z,11.2
2022-12-29T07:43:32.006Z,11.1
2022-12-29T07:53:32.089Z,11.3
2022-12-29T08:03:32.213Z,11.2
2022-12-29T08:13:33.106Z,11.2
2022-12-29T08:23:33.535Z,11.2
2022-12-29T08:33:34.209Z,11.2
2022-12-29T08:43:35.102Z,11.3
2022-12-29T08:53:35.967Z,11.2
2022-12-29T09:13:37.511Z,10.5
2022-12-29T09:23:38.400Z,11.1
2022-12-29T09:33:39.410Z,11.3
2022-12-29T09:43:40.113Z,11.3
2022-12-29T09:53:41.071Z,11.2
2022-12-29T10:03:41.224Z,11.3
2022-12-29T10:23:41.907Z,11.2
2022-12-29T10:33:42.484Z,11.1
2022-12-29T10:43:42.796Z,11.4
2022-12-29T10:53:43.648Z,11.2
2022-12-29T11:03:43.842Z,11.1
2022-12-29T11:13:43.889Z,11.2
2022-12-29T11:23:44.653Z,11.3
2022-12-29T11:33:45.326Z,11.2
2022-12-29T11:43:45.951Z,11.2
2022-12-29T11:53:46.690Z,11.2
2022-12-29T12:03:47.698Z,11.2
2022-12-29T12:13:48.484Z,11.1
2022-12-29T12:33:49.693Z,11.2
2022-12-29T12:43:50.599Z,11.1
2022-12-29T12:53:51.255Z,11
2022-12-29T13:03:51.388Z,11
2022-12-29T13:13:52.400Z,10.9
2022-12-29T13:23:52.723Z,10.9
2022-12-29T13:33:53.046Z,10.9
2022-12-29T13:43:53.410Z,10.9
2022-12-29T13:53:53.465Z,10.5
2022-12-29T14:03:54.079Z,10.4
2022-12-29T14:13:54.674Z,10.4
2022-12-29T14:23:55.636Z,10.4
2022-12-29T14:33:55.903Z,10.3
2022-12-29T14:43:56.544Z,10.4
2022-12-29T14:53:56.745Z,10.4
2022-12-29T15:03:56.878Z,10.4
2022-12-29T15:13:57.840Z,10.4
2022-12-29T15:23:58.197Z,10.4
2022-12-29T15:33:58.879Z,10.4
2022-12-29T15:43:58.922Z,10.3
2022-12-29T15:53:59.136Z,10.3
2022-12-29T16:03:59.514Z,10.2
2022-12-29T16:14:00.306Z,10.3
2022-12-29T16:24:00.396Z,10.2
2022-12-29T16:34:00.975Z,10.2
2022-12-29T16:44:01.613Z,9.9
2022-12-29T16:54:02.577Z,9.7
2022-12-29T17:04:03.181Z,9.6
2022-12-29T17:14:03.887Z,9.6
2022-12-29T17:14:09.204Z,9.7
2022-12-29T17:24:09.770Z,9.7
2022-12-29T17:34:10.653Z,7.2
2022-12-29T17:44:10.908Z,6.9
2022-12-29T17:54:11.378Z,6.8
2022-12-29T18:14:13.068Z,6.8
2022-12-29T18:34:14.134Z,6.7
2022-12-29T18:54:15.893Z,6.9
2022-12-29T19:34:18.226Z,7.3
2022-12-29T19:44:19.230Z,7.4
2022-12-29T19:54:19.490Z,7.5
2022-12-29T20:14:21.094Z,7.6
2022-12-29T20:24:22.097Z,7.5
2022-12-29T20:34:22.835Z,7.5
2022-12-29T20:54:23.636Z,7.5
2022-12-29T21:04:24.125Z,7.4
2022-12-29T21:14:24.272Z,7.5
2022-12-29T21:24:24.376Z,7.4
2022-12-29T21:54:26.197Z,7.2
2022-12-29T22:04:26.763Z,7.1
2022-12-29T22:14:26.967Z,7
2022-12-29T22:34:28.075Z,7.1
2022-12-29T22:54:29.387Z,7.1
2022-12-29T23:05:02.729Z,7
2022-12-29T23:14:29.997Z,6.9
2022-12-29T23:24:30.318Z,7
2022-12-29T23:34:31.213Z,6.8
2022-12-29T23:44:32.007Z,6.8
2022-12-29T23:54:33.026Z,6.8
